Time;durP1;ratioP1;P1;durP2;ratioP2;P2;SDS_P1;SDS_P2;PMS_P1;PMS_P2;Temp;Humidity;BMP_temperature;BMP_pressure;BME280_temperature;BME280_humidity;BME280_pressure;Samples;Min_cycle;Max_cycle;Signal;HPM_P1;HPM_P2
2023/05/29 00:01:45;;;;;;;3.42;2.65;;;;;;;;;;5032105;28;20212;-64
2023/05/29 00:04:14;;;;;;;2.95;2.65;;;;;;;;;;5033082;28;20207;-64
2023/05/29 00:06:41;;;;;;;3.78;2.75;;;;;;;;;;5032352;28;20200;-64
2023/05/29 00:09:09;;;;;;;3.13;2.33;;;;;;;;;;5033246;28;20212;-64
2023/05/29 00:11:36;;;;;;;2.97;2.22;;;;;;;;;;5030450;28;20255;-64
2023/05/29 00:14:03;;;;;;;2.92;2.65;;;;;;;;;;5032811;28;20200;-65
2023/05/29 00:16:31;;;;;;;4.40;2.53;;;;;;;;;;5032707;28;20215;-64
2023/05/29 00:18:58;;;;;;;2.60;2.40;;;;;;;;;;5031610;28;20200;-64
2023/05/29 00:21:26;;;;;;;3.80;2.53;;;;;;;;;;5032579;28;20254;-64
2023/05/29 00:23:53;;;;;;;2.40;2.20;;;;;;;;;;5029853;28;20239;-64
2023/05/29 00:26:21;;;;;;;3.10;2.55;;;;;;;;;;5027396;28;20207;-64
2023/05/29 00:28:48;;;;;;;3.53;2.45;;;;;;;;;;5030310;28;20232;-64
2023/05/29 00:31:15;;;;;;;3.28;2.97;;;;;;;;;;5031736;28;20215;-64
2023/05/29 00:33:42;;;;;;;4.43;2.72;;;;;;;;;;5031669;28;20208;-64
2023/05/29 00:36:10;;;;;;;3.65;2.35;;;;;;;;;;5033532;28;20206;-64
2023/05/29 00:38:38;;;;;;;3.40;2.70;;;;;;;;;;5026667;28;20238;-64
2023/05/29 00:41:06;;;;;;;3.58;2.25;;;;;;;;;;5029104;28;20211;-64
2023/05/29 00:43:33;;;;;;;5.00;2.60;;;;;;;;;;5030231;28;20211;-64
2023/05/29 00:46:00;;;;;;;4.22;2.85;;;;;;;;;;5028718;28;20211;-64
2023/05/29 00:48:27;;;;;;;3.45;2.72;;;;;;;;;;5031822;28;20223;-64
2023/05/29 00:50:55;;;;;;;2.80;2.17;;;;;;;;;;5032012;28;20207;-64
2023/05/29 00:53:22;;;;;;;3.45;2.35;;;;;;;;;;5031049;28;20200;-64
2023/05/29 00:55:51;;;;;;;2.50;2.25;;;;;;;;;;5032237;28;20204;-64
2023/05/29 00:58:18;;;;;;;3.78;2.50;;;;;;;;;;5031582;28;20207;-64
2023/05/29 01:00:46;;;;;;;3.20;2.50;;;;;;;;;;5031126;28;20208;-64
2023/05/29 01:03:16;;;;;;;3.38;2.50;;;;;;;;;;5031825;28;20208;-65
2023/05/29 01:05:44;;;;;;;3.63;2.88;;;;;;;;;;5027457;28;20238;-65
2023/05/29 01:08:11;;;;;;;3.53;2.50;;;;;;;;;;5030185;28;20220;-64
2023/05/29 01:10:38;;;;;;;3.58;2.58;;;;;;;;;;5029107;28;20204;-64
2023/05/29 01:13:10;;;;;;;3.22;2.60;;;;;;;;;;5031043;28;20196;-65
2023/05/29 01:15:42;;;;;;;2.65;2.30;;;;;;;;;;5031758;28;20196;-64
2023/05/29 01:18:14;;;;;;;2.78;2.58;;;;;;;;;;5030572;28;20208;-65
2023/05/29 01:20:43;;;;;;;3.00;2.50;;;;;;;;;;5028182;28;20204;-64
2023/05/29 01:23:29;;;;;;;3.40;2.47;;;;;;;;;;5031941;28;20232;-64
2023/05/29 01:26:13;;;;;;;3.03;2.65;;;;;;;;;;5030536;28;20215;-64
2023/05/29 01:28:43;;;;;;;3.17;2.40;;;;;;;;;;5031315;28;20303;-64
2023/05/29 01:31:11;;;;;;;3.40;2.67;;;;;;;;;;5030688;28;20200;-65
2023/05/29 01:33:41;;;;;;;3.08;2.40;;;;;;;;;;5029343;28;20215;-64
2023/05/29 01:36:08;;;;;;;4.35;2.65;;;;;;;;;;5030233;28;20200;-64
2023/05/29 01:38:36;;;;;;;2.65;2.45;;;;;;;;;;5030834;28;20223;-64
2023/05/29 01:41:03;;;;;;;3.40;2.70;;;;;;;;;;5031058;28;20227;-64
2023/05/29 01:43:30;;;;;;;5.70;2.50;;;;;;;;;;5030886;28;20214;-64
2023/05/29 01:45:59;;;;;;;3.35;2.60;;;;;;;;;;5030876;28;20200;-64
2023/05/29 01:48:26;;;;;;;3.17;2.50;;;;;;;;;;5030488;28;20298;-64
2023/05/29 01:50:54;;;;;;;3.40;2.50;;;;;;;;;;5030546;28;20208;-64
2023/05/29 01:53:22;;;;;;;2.90;2.58;;;;;;;;;;5029839;28;20208;-64
2023/05/29 01:55:50;;;;;;;2.92;2.50;;;;;;;;;;5031063;28;20196;-64
2023/05/29 01:58:17;;;;;;;3.42;2.30;;;;;;;;;;5030313;28;20204;-64
2023/05/29 02:00:45;;;;;;;3.08;2.70;;;;;;;;;;5027893;28;20215;-64
2023/05/29 02:03:13;;;;;;;4.78;2.58;;;;;;;;;;5028994;28;20291;-64
2023/05/29 02:05:40;;;;;;;2.55;2.30;;;;;;;;;;5028823;28;20212;-65
2023/05/29 02:08:07;;;;;;;4.07;2.78;;;;;;;;;;5029972;28;20223;-64
2023/05/29 02:10:35;;;;;;;5.15;2.80;;;;;;;;;;5026456;28;20200;-65
2023/05/29 02:13:02;;;;;;;2.65;2.30;;;;;;;;;;5027659;28;20259;-65
2023/05/29 02:15:29;;;;;;;2.50;2.20;;;;;;;;;;5028913;28;20315;-64
2023/05/29 02:17:57;;;;;;;2.70;2.50;;;;;;;;;;5027978;28;20230;-64
2023/05/29 02:20:25;;;;;;;2.97;2.60;;;;;;;;;;5030908;28;20200;-64
2023/05/29 02:22:53;;;;;;;2.63;2.22;;;;;;;;;;5027328;28;20278;-64
2023/05/29 02:25:20;;;;;;;3.42;2.53;;;;;;;;;;5030553;28;20204;-64
2023/05/29 02:27:47;;;;;;;3.55;2.70;;;;;;;;;;5029603;28;20204;-65
2023/05/29 02:30:14;;;;;;;3.17;2.30;;;;;;;;;;5027536;28;20208;-65
2023/05/29 02:32:42;;;;;;;5.70;2.65;;;;;;;;;;5028766;28;20200;-65
2023/05/29 02:35:09;;;;;;;2.97;2.40;;;;;;;;;;5028560;28;20197;-65
2023/05/29 02:37:38;;;;;;;3.03;2.50;;;;;;;;;;5029420;28;20215;-65
2023/05/29 02:40:06;;;;;;;2.53;2.25;;;;;;;;;;5026088;28;20210;-65
2023/05/29 02:42:33;;;;;;;3.25;2.88;;;;;;;;;;5031162;28;20246;-65
2023/05/29 02:45:00;;;;;;;2.53;2.33;;;;;;;;;;5035583;28;20223;-64
2023/05/29 02:47:28;;;;;;;2.97;2.67;;;;;;;;;;5036279;28;20216;-65
2023/05/29 02:49:55;;;;;;;3.83;2.67;;;;;;;;;;5035968;28;20220;-64
2023/05/29 02:52:22;;;;;;;3.17;2.63;;;;;;;;;;5036376;28;20208;-64
2023/05/29 02:54:51;;;;;;;3.38;2.28;;;;;;;;;;5032708;28;20209;-65
2023/05/29 02:57:18;;;;;;;4.32;2.83;;;;;;;;;;5035228;28;20203;-65
2023/05/29 02:59:46;;;;;;;3.55;2.42;;;;;;;;;;5032691;28;20207;-65
2023/05/29 03:02:13;;;;;;;3.47;2.42;;;;;;;;;;5034016;28;20208;-65
2023/05/29 03:04:40;;;;;;;2.63;2.30;;;;;;;;;;5035407;28;20204;-65
2023/05/29 03:07:09;;;;;;;3.63;2.40;;;;;;;;;;5035859;28;20207;-65
2023/05/29 03:09:36;;;;;;;2.83;2.25;;;;;;;;;;5032659;28;20216;-65
2023/05/29 03:12:05;;;;;;;2.60;2.30;;;;;;;;;;5034409;28;20208;-65
2023/05/29 03:14:35;;;;;;;3.50;2.47;;;;;;;;;;5036097;28;20203;-65
2023/05/29 03:17:02;;;;;;;2.72;2.10;;;;;;;;;;5035689;28;20216;-65
2023/05/29 03:19:30;;;;;;;3.55;2.50;;;;;;;;;;5033303;28;20211;-65
2023/05/29 03:21:57;;;;;;;4.22;2.50;;;;;;;;;;5033518;28;20243;-65
2023/05/29 03:24:24;;;;;;;3.85;2.67;;;;;;;;;;5034732;28;20212;-65
2023/05/29 03:26:51;;;;;;;4.07;2.55;;;;;;;;;;5033983;28;20196;-65
2023/05/29 03:29:20;;;;;;;2.90;2.42;;;;;;;;;;5034616;28;20228;-65
2023/05/29 03:31:47;;;;;;;4.65;2.60;;;;;;;;;;5034635;28;20210;-65
2023/05/29 03:34:14;;;;;;;3.70;2.53;;;;;;;;;;5036348;28;20204;-65
2023/05/29 03:36:42;;;;;;;3.33;2.63;;;;;;;;;;5036009;28;20200;-65
2023/05/29 03:39:09;;;;;;;2.85;2.55;;;;;;;;;;5034981;28;20203;-65
2023/05/29 03:41:36;;;;;;;2.85;2.45;;;;;;;;;;5036345;28;20210;-65
2023/05/29 03:44:03;;;;;;;4.25;2.70;;;;;;;;;;5035263;28;20200;-65
2023/05/29 03:46:32;;;;;;;3.20;2.40;;;;;;;;;;5037300;28;20203;-65
2023/05/29 03:49:00;;;;;;;4.40;2.63;;;;;;;;;;5037481;28;20306;-65
2023/05/29 03:51:27;;;;;;;3.38;3.03;;;;;;;;;;5036290;28;20218;-66
2023/05/29 03:53:54;;;;;;;3.55;2.85;;;;;;;;;;5033831;28;20200;-64
2023/05/29 03:56:21;;;;;;;4.63;2.75;;;;;;;;;;5032048;28;20204;-64
2023/05/29 03:58:48;;;;;;;4.10;2.80;;;;;;;;;;5032596;28;20291;-64
2023/05/29 04:01:15;;;;;;;4.68;2.90;;;;;;;;;;5033638;28;20200;-64
2023/05/29 04:03:44;;;;;;;5.72;3.20;;;;;;;;;;5032456;28;20196;-64
2023/05/29 04:06:12;;;;;;;4.60;2.90;;;;;;;;;;5032766;28;20295;-65
2023/05/29 04:08:40;;;;;;;4.63;2.95;;;;;;;;;;5030579;28;20220;-65
2023/05/29 04:11:07;;;;;;;6.07;2.90;;;;;;;;;;5032536;28;20208;-65
2023/05/29 04:13:34;;;;;;;4.75;3.28;;;;;;;;;;5031902;28;20209;-65
2023/05/29 04:16:01;;;;;;;4.88;3.10;;;;;;;;;;5032671;28;20231;-65
2023/05/29 04:18:28;;;;;;;4.65;3.45;;;;;;;;;;5031506;28;20208;-65
2023/05/29 04:20:57;;;;;;;5.18;3.00;;;;;;;;;;5025356;28;20331;-65
2023/05/29 04:23:24;;;;;;;4.38;3.22;;;;;;;;;;5031587;28;20239;-65
2023/05/29 04:25:52;;;;;;;4.10;2.92;;;;;;;;;;5030387;28;20206;-65
2023/05/29 04:28:21;;;;;;;3.95;3.03;;;;;;;;;;5030839;28;20270;-64
2023/05/29 04:30:48;;;;;;;5.28;3.20;;;;;;;;;;5032183;28;20211;-64
2023/05/29 04:33:15;;;;;;;5.93;3.20;;;;;;;;;;5031156;28;20204;-65
2023/05/29 04:35:43;;;;;;;4.82;3.25;;;;;;;;;;5031022;28;20209;-65
2023/05/29 04:38:11;;;;;;;6.10;3.38;;;;;;;;;;5031964;28;20254;-65
2023/05/29 04:40:40;;;;;;;3.30;2.88;;;;;;;;;;5031053;28;20200;-65
2023/05/29 04:43:07;;;;;;;6.60;3.40;;;;;;;;;;5031129;28;20222;-65
2023/05/29 04:45:36;;;;;;;5.32;3.28;;;;;;;;;;5030310;28;20208;-65
2023/05/29 04:48:03;;;;;;;3.78;3.20;;;;;;;;;;5031615;28;20240;-64
2023/05/29 04:50:31;;;;;;;5.28;3.17;;;;;;;;;;5029980;28;20227;-65
2023/05/29 04:52:58;;;;;;;4.78;3.10;;;;;;;;;;5031472;28;20291;-65
2023/05/29 04:55:27;;;;;;;5.60;3.20;;;;;;;;;;5031345;28;20200;-64
2023/05/29 04:57:54;;;;;;;5.72;3.40;;;;;;;;;;5031032;28;20246;-65
2023/05/29 05:00:22;;;;;;;3.70;2.95;;;;;;;;;;5030461;28;20287;-65
2023/05/29 05:02:50;;;;;;;4.82;3.28;;;;;;;;;;5028465;28;20283;-64
2023/05/29 05:05:18;;;;;;;5.53;3.10;;;;;;;;;;5029241;28;20212;-64
2023/05/29 05:07:45;;;;;;;5.07;3.30;;;;;;;;;;5029366;28;20204;-64
2023/05/29 05:10:12;;;;;;;5.20;3.35;;;;;;;;;;5031042;28;20231;-64
2023/05/29 05:12:41;;;;;;;5.28;3.47;;;;;;;;;;5030393;28;20203;-64
2023/05/29 05:15:09;;;;;;;6.32;3.60;;;;;;;;;;5030180;28;20196;-64
2023/05/29 05:17:36;;;;;;;4.75;3.50;;;;;;;;;;5030799;28;20251;-64
2023/05/29 05:20:05;;;;;;;5.50;3.75;;;;;;;;;;5029173;28;20204;-63
2023/05/29 05:22:33;;;;;;;7.70;3.60;;;;;;;;;;5031387;28;20235;-64
2023/05/29 05:25:00;;;;;;;6.13;3.50;;;;;;;;;;5029349;28;20200;-64
2023/05/29 05:27:27;;;;;;;5.15;3.33;;;;;;;;;;5029117;28;20208;-64
2023/05/29 05:29:56;;;;;;;4.72;3.33;;;;;;;;;;5028054;28;20230;-63
2023/05/29 05:32:23;;;;;;;6.25;3.40;;;;;;;;;;5030595;28;20232;-63
2023/05/29 05:34:50;;;;;;;3.95;3.13;;;;;;;;;;5028546;28;20204;-63
2023/05/29 05:37:17;;;;;;;6.22;3.65;;;;;;;;;;5030699;28;20203;-63
2023/05/29 05:39:44;;;;;;;4.95;3.30;;;;;;;;;;5029230;28;20196;-63
2023/05/29 05:42:11;;;;;;;6.80;3.88;;;;;;;;;;5028919;28;20215;-63
2023/05/29 05:44:39;;;;;;;8.27;3.83;;;;;;;;;;5028899;28;20208;-63
2023/05/29 05:47:07;;;;;;;4.75;3.55;;;;;;;;;;5028989;28;20203;-63
2023/05/29 05:49:35;;;;;;;6.97;3.80;;;;;;;;;;5030350;28;20228;-63
2023/05/29 05:52:02;;;;;;;7.55;3.75;;;;;;;;;;5029476;28;20211;-63
2023/05/29 05:54:29;;;;;;;4.63;3.45;;;;;;;;;;5030091;28;20212;-63
2023/05/29 05:56:56;;;;;;;4.63;3.35;;;;;;;;;;5027102;28;20205;-63
2023/05/29 05:59:23;;;;;;;7.13;3.40;;;;;;;;;;5030825;28;20204;-62
2023/05/29 06:01:51;;;;;;;7.13;3.70;;;;;;;;;;5027150;28;20223;-62
2023/05/29 06:04:20;;;;;;;4.40;3.50;;;;;;;;;;5030433;28;20204;-62
2023/05/29 06:06:47;;;;;;;6.75;3.65;;;;;;;;;;5027318;28;20200;-62
2023/05/29 06:09:14;;;;;;;4.32;3.60;;;;;;;;;;5025918;28;20228;-62
2023/05/29 06:11:41;;;;;;;5.93;3.70;;;;;;;;;;5029118;28;20211;-62
2023/05/29 06:14:08;;;;;;;3.78;2.90;;;;;;;;;;5028111;28;20204;-62
2023/05/29 06:16:36;;;;;;;5.50;3.53;;;;;;;;;;5028351;28;20212;-63
2023/05/29 06:19:04;;;;;;;7.75;3.60;;;;;;;;;;5027453;28;20207;-62
2023/05/29 06:21:33;;;;;;;5.50;3.10;;;;;;;;;;5030243;28;20205;-62
2023/05/29 06:24:00;;;;;;;5.70;3.50;;;;;;;;;;5024809;28;20211;-62
2023/05/29 06:26:28;;;;;;;5.05;3.15;;;;;;;;;;5029150;28;20314;-62
2023/05/29 06:28:55;;;;;;;4.35;3.33;;;;;;;;;;5026623;28;20307;-62
2023/05/29 06:31:22;;;;;;;5.03;3.10;;;;;;;;;;5029605;28;20322;-62
2023/05/29 06:33:50;;;;;;;4.22;2.90;;;;;;;;;;5029176;28;20203;-62
2023/05/29 06:36:17;;;;;;;4.43;3.08;;;;;;;;;;5029139;28;20200;-62
2023/05/29 06:38:49;;;;;;;4.00;3.55;;;;;;;;;;5026931;28;20212;-62
2023/05/29 06:41:16;;;;;;;7.45;3.53;;;;;;;;;;5028991;28;20204;-62
2023/05/29 06:43:43;;;;;;;4.55;3.25;;;;;;;;;;5025334;28;20291;-62
2023/05/29 06:46:10;;;;;;;5.72;3.25;;;;;;;;;;5027728;28;20203;-62
2023/05/29 06:48:37;;;;;;;7.03;3.40;;;;;;;;;;5028695;28;20212;-62
2023/05/29 06:51:08;;;;;;;4.38;3.10;;;;;;;;;;5029897;28;20220;-62
2023/05/29 06:53:36;;;;;;;6.32;3.25;;;;;;;;;;5028074;28;20226;-61
2023/05/29 06:56:04;;;;;;;4.15;2.88;;;;;;;;;;5029376;28;20266;-62
2023/05/29 06:58:32;;;;;;;6.70;3.20;;;;;;;;;;5026731;28;20200;-63
2023/05/29 07:00:59;;;;;;;5.15;3.47;;;;;;;;;;5026843;28;20196;-62
2023/05/29 07:03:27;;;;;;;5.75;3.20;;;;;;;;;;5027750;28;20196;-62
2023/05/29 07:05:54;;;;;;;4.90;3.22;;;;;;;;;;5028216;28;20215;-62
2023/05/29 07:08:21;;;;;;;3.72;2.65;;;;;;;;;;5026615;28;20216;-62
2023/05/29 07:10:49;;;;;;;5.43;3.17;;;;;;;;;;5029196;28;20219;-62
2023/05/29 07:13:18;;;;;;;4.35;3.55;;;;;;;;;;5028902;28;20294;-62
2023/05/29 07:15:46;;;;;;;5.15;3.22;;;;;;;;;;5027344;28;20204;-61
2023/05/29 07:18:13;;;;;;;5.47;2.97;;;;;;;;;;5029661;28;20208;-62
2023/05/29 07:20:40;;;;;;;3.42;3.03;;;;;;;;;;5027349;28;20200;-62
2023/05/29 07:23:07;;;;;;;4.30;2.85;;;;;;;;;;5028795;28;20258;-63
2023/05/29 07:25:34;;;;;;;5.15;3.20;;;;;;;;;;5025213;28;20208;-62
2023/05/29 07:28:02;;;;;;;4.80;3.20;;;;;;;;;;5029362;28;20228;-62
2023/05/29 07:30:30;;;;;;;4.18;3.35;;;;;;;;;;5032172;28;20231;-62
2023/05/29 07:32:57;;;;;;;4.10;3.00;;;;;;;;;;5030714;28;20231;-62
2023/05/29 07:35:25;;;;;;;4.55;2.72;;;;;;;;;;5033651;28;20207;-62
2023/05/29 07:37:53;;;;;;;4.07;3.15;;;;;;;;;;5033204;28;20218;-62
2023/05/29 07:40:21;;;;;;;7.95;3.13;;;;;;;;;;5032182;28;20208;-61
2023/05/29 07:42:48;;;;;;;4.75;3.25;;;;;;;;;;5032022;28;20208;-62
2023/05/29 07:45:15;;;;;;;3.85;3.08;;;;;;;;;;5028351;28;20212;-62
2023/05/29 07:47:44;;;;;;;3.50;2.67;;;;;;;;;;5032423;28;20295;-62
2023/05/29 07:50:11;;;;;;;3.42;2.85;;;;;;;;;;5032029;28;20216;-62
2023/05/29 07:52:38;;;;;;;7.93;3.20;;;;;;;;;;5031319;28;20204;-62
2023/05/29 07:55:05;;;;;;;3.25;2.88;;;;;;;;;;5031685;28;20212;-62
2023/05/29 07:57:33;;;;;;;4.25;2.92;;;;;;;;;;5033356;28;20207;-64
2023/05/29 08:00:01;;;;;;;5.95;3.35;;;;;;;;;;5032208;28;20207;-65
2023/05/29 08:02:28;;;;;;;3.78;3.20;;;;;;;;;;5030692;28;20255;-65
2023/05/29 08:04:57;;;;;;;4.63;2.95;;;;;;;;;;5031871;28;20207;-64
2023/05/29 08:07:24;;;;;;;4.90;3.00;;;;;;;;;;5027875;28;20204;-64
2023/05/29 08:09:51;;;;;;;3.85;3.00;;;;;;;;;;5031546;28;20203;-64
2023/05/29 08:12:18;;;;;;;3.90;3.08;;;;;;;;;;5027760;28;20202;-64
2023/05/29 08:14:46;;;;;;;6.70;3.30;;;;;;;;;;5032319;28;20211;-64
2023/05/29 08:17:13;;;;;;;4.35;2.67;;;;;;;;;;5028351;28;20212;-65
2023/05/29 08:19:40;;;;;;;4.53;2.70;;;;;;;;;;5030903;28;20196;-65
2023/05/29 08:22:08;;;;;;;6.85;3.10;;;;;;;;;;5025198;28;20235;-64
2023/05/29 08:24:36;;;;;;;4.80;3.10;;;;;;;;;;5028999;28;20204;-63
2023/05/29 08:27:03;;;;;;;5.47;3.25;;;;;;;;;;5029529;28;20204;-63
2023/05/29 08:29:30;;;;;;;5.03;3.08;;;;;;;;;;5028552;28;20243;-62
2023/05/29 08:31:57;;;;;;;4.85;3.00;;;;;;;;;;5030545;28;20220;-63
2023/05/29 08:34:24;;;;;;;5.30;3.00;;;;;;;;;;5031262;28;20212;-64
2023/05/29 08:36:54;;;;;;;3.42;2.90;;;;;;;;;;5028398;28;20200;-62
2023/05/29 08:39:23;;;;;;;3.42;2.67;;;;;;;;;;5030380;28;20204;-62
2023/05/29 08:41:53;;;;;;;4.15;3.13;;;;;;;;;;5030764;28;20272;-62
2023/05/29 08:44:23;;;;;;;4.07;2.90;;;;;;;;;;5030792;28;20204;-65
2023/05/29 08:46:51;;;;;;;3.40;2.88;;;;;;;;;;5027311;28;20200;-65
2023/05/29 08:49:19;;;;;;;5.38;2.92;;;;;;;;;;5031766;28;20204;-64
2023/05/29 08:51:50;;;;;;;3.20;2.70;;;;;;;;;;5027441;28;20231;-63
2023/05/29 08:54:17;;;;;;;3.25;2.70;;;;;;;;;;5024766;28;20208;-62
2023/05/29 08:56:46;;;;;;;5.15;2.70;;;;;;;;;;5025412;28;20212;-63
2023/05/29 08:59:13;;;;;;;5.63;2.90;;;;;;;;;;5031115;28;20211;-62
2023/05/29 09:01:42;;;;;;;4.50;2.70;;;;;;;;;;5029887;28;20292;-64
2023/05/29 09:04:10;;;;;;;4.10;2.80;;;;;;;;;;5030875;28;20273;-64
2023/05/29 09:06:39;;;;;;;3.55;2.70;;;;;;;;;;5028672;28;20200;-65
2023/05/29 09:09:07;;;;;;;4.93;2.70;;;;;;;;;;5026478;28;20211;-64
2023/05/29 09:11:34;;;;;;;5.78;3.25;;;;;;;;;;5027631;28;20230;-65
2023/05/29 09:14:03;;;;;;;4.40;2.90;;;;;;;;;;5028993;28;20204;-64
2023/05/29 09:16:30;;;;;;;3.35;3.00;;;;;;;;;;5028462;28;20204;-64
2023/05/29 09:19:06;;;;;;;3.78;2.63;;;;;;;;;;5029569;28;20205;-63
2023/05/29 09:21:34;;;;;;;3.50;2.70;;;;;;;;;;5023229;28;20200;-64
2023/05/29 09:24:05;;;;;;;7.13;2.80;;;;;;;;;;5028253;28;20299;-65
2023/05/29 09:26:32;;;;;;;4.07;2.80;;;;;;;;;;5029504;28;20335;-62
2023/05/29 09:29:01;;;;;;;3.33;2.80;;;;;;;;;;5027292;28;20290;-64
2023/05/29 09:31:30;;;;;;;6.80;2.90;;;;;;;;;;5029059;28;20270;-64
2023/05/29 09:34:04;;;;;;;2.80;2.60;;;;;;;;;;5028159;28;20201;-64
2023/05/29 09:36:32;;;;;;;6.95;2.95;;;;;;;;;;5028180;28;20234;-66
2023/05/29 09:39:03;;;;;;;5.53;2.70;;;;;;;;;;5023793;28;20220;-63
2023/05/29 09:41:31;;;;;;;4.55;2.50;;;;;;;;;;5026228;28;20236;-63
2023/05/29 09:43:58;;;;;;;3.33;2.40;;;;;;;;;;5026399;28;20200;-64
2023/05/29 09:46:25;;;;;;;4.60;3.08;;;;;;;;;;5030063;28;20204;-66
2023/05/29 09:48:54;;;;;;;3.75;2.88;;;;;;;;;;5031694;28;20202;-63
2023/05/29 09:51:23;;;;;;;3.38;2.53;;;;;;;;;;5031201;28;20235;-64
2023/05/29 09:53:51;;;;;;;3.55;2.80;;;;;;;;;;5026468;28;20205;-63
2023/05/29 09:56:18;;;;;;;4.22;2.80;;;;;;;;;;5028603;28;20207;-63
2023/05/29 09:58:47;;;;;;;3.13;2.50;;;;;;;;;;5031156;28;20211;-63
2023/05/29 10:01:15;;;;;;;4.35;2.90;;;;;;;;;;5025610;28;20295;-63
2023/05/29 10:03:43;;;;;;;4.43;2.58;;;;;;;;;;5028397;28;20439;-65
2023/05/29 10:06:14;;;;;;;3.85;2.40;;;;;;;;;;5026055;28;20200;-64
2023/05/29 10:08:44;;;;;;;3.60;2.60;;;;;;;;;;5029821;28;20200;-64
2023/05/29 10:11:15;;;;;;;4.40;2.67;;;;;;;;;;5030032;28;20239;-64
2023/05/29 10:13:48;;;;;;;3.08;2.63;;;;;;;;;;5030612;28;20298;-64
2023/05/29 10:16:16;;;;;;;4.10;2.45;;;;;;;;;;5031722;28;20200;-64
2023/05/29 10:18:44;;;;;;;3.95;2.78;;;;;;;;;;5031695;28;20207;-64
2023/05/29 10:21:14;;;;;;;4.90;2.75;;;;;;;;;;5026977;28;20235;-63
2023/05/29 10:23:44;;;;;;;4.90;3.25;;;;;;;;;;5030014;28;20313;-64
2023/05/29 10:26:14;;;;;;;3.88;2.80;;;;;;;;;;5031273;28;20303;-64
2023/05/29 10:28:42;;;;;;;3.58;2.60;;;;;;;;;;5030596;28;20219;-63
2023/05/29 10:31:11;;;;;;;4.50;2.90;;;;;;;;;;5026514;28;20218;-65
2023/05/29 10:33:52;;;;;;;3.75;2.65;;;;;;;;;;5030896;28;20196;-66
2023/05/29 10:36:23;;;;;;;4.88;3.10;;;;;;;;;;5029645;28;20207;-67
2023/05/29 10:38:51;;;;;;;4.05;2.67;;;;;;;;;;5028817;28;20259;-67
2023/05/29 10:41:32;;;;;;;5.00;3.25;;;;;;;;;;5029721;28;20231;-67
2023/05/29 10:44:00;;;;;;;3.63;2.55;;;;;;;;;;5025792;28;20305;-64
2023/05/29 10:46:47;;;;;;;4.28;2.70;;;;;;;;;;5030142;28;20240;-63
2023/05/29 10:49:17;;;;;;;3.70;2.67;;;;;;;;;;5028971;28;20250;-64
2023/05/29 10:51:46;;;;;;;2.72;2.53;;;;;;;;;;5028816;28;20254;-63
2023/05/29 10:54:13;;;;;;;3.70;2.78;;;;;;;;;;5027096;28;20203;-66
2023/05/29 10:56:41;;;;;;;4.00;2.90;;;;;;;;;;5028190;28;20204;-66
2023/05/29 10:59:09;;;;;;;3.70;2.60;;;;;;;;;;5029030;28;20286;-64
2023/05/29 11:01:39;;;;;;;4.15;2.65;;;;;;;;;;5028134;28;20204;-64
2023/05/29 11:04:26;;;;;;;3.22;2.70;;;;;;;;;;5030832;28;20204;-63
2023/05/29 11:06:54;;;;;;;5.82;2.78;;;;;;;;;;5029447;28;20211;-63
2023/05/29 11:09:29;;;;;;;3.50;2.65;;;;;;;;;;5033325;28;20208;-63
2023/05/29 11:12:14;;;;;;;3.33;2.47;;;;;;;;;;5027246;28;20212;-63
2023/05/29 11:14:49;;;;;;;4.57;2.70;;;;;;;;;;5028467;28;20195;-63
2023/05/29 11:17:34;;;;;;;3.00;2.70;;;;;;;;;;5031655;28;20239;-62
2023/05/29 11:20:06;;;;;;;5.20;2.85;;;;;;;;;;5031315;28;20283;-63
2023/05/29 11:22:48;;;;;;;3.10;2.50;;;;;;;;;;5031194;28;20282;-64
2023/05/29 11:25:15;;;;;;;3.75;2.80;;;;;;;;;;5029370;28;20204;-64
2023/05/29 11:27:46;;;;;;;3.78;2.75;;;;;;;;;;5028342;28;20290;-65
2023/05/29 11:30:14;;;;;;;4.22;2.50;;;;;;;;;;5031778;28;20201;-64
2023/05/29 11:32:42;;;;;;;3.30;2.97;;;;;;;;;;5032407;28;20216;-65
2023/05/29 11:35:10;;;;;;;3.67;2.67;;;;;;;;;;5031956;28;20204;-65
2023/05/29 11:37:39;;;;;;;4.68;3.00;;;;;;;;;;5031256;28;20200;-64
2023/05/29 11:40:07;;;;;;;2.83;2.58;;;;;;;;;;5030950;28;20295;-64
2023/05/29 11:42:34;;;;;;;5.15;2.78;;;;;;;;;;5025213;28;20220;-63
2023/05/29 11:45:11;;;;;;;4.70;2.58;;;;;;;;;;5032438;28;20215;-63
2023/05/29 11:47:52;;;;;;;5.35;3.20;;;;;;;;;;5033854;28;20200;-62
2023/05/29 11:50:20;;;;;;;3.92;2.63;;;;;;;;;;5034798;28;20200;-64
2023/05/29 11:52:49;;;;;;;4.00;2.92;;;;;;;;;;5031663;28;20224;-63
2023/05/29 11:55:16;;;;;;;4.60;2.60;;;;;;;;;;5033365;28;20200;-64
2023/05/29 11:57:43;;;;;;;3.80;2.92;;;;;;;;;;5035333;28;20205;-63
2023/05/29 12:00:14;;;;;;;4.85;3.05;;;;;;;;;;5039078;28;20196;-63
2023/05/29 12:02:42;;;;;;;4.45;2.60;;;;;;;;;;5034595;28;20271;-65
2023/05/29 12:05:10;;;;;;;4.43;2.97;;;;;;;;;;5030216;28;20204;-65
2023/05/29 12:07:37;;;;;;;3.55;2.70;;;;;;;;;;5034864;28;20221;-65
2023/05/29 12:10:12;;;;;;;4.40;2.67;;;;;;;;;;5035248;28;20204;-63
2023/05/29 12:12:39;;;;;;;4.50;3.00;;;;;;;;;;5031393;28;20216;-65
2023/05/29 12:15:08;;;;;;;3.55;2.60;;;;;;;;;;5028060;28;20193;-65
2023/05/29 12:17:35;;;;;;;3.25;2.53;;;;;;;;;;5031265;28;20212;-65
2023/05/29 12:20:03;;;;;;;3.03;2.63;;;;;;;;;;5034148;28;20204;-67
2023/05/29 12:22:35;;;;;;;3.13;2.88;;;;;;;;;;5033484;28;20262;-64
2023/05/29 12:25:07;;;;;;;2.70;2.40;;;;;;;;;;5033282;28;20222;-65
2023/05/29 12:27:41;;;;;;;3.95;2.70;;;;;;;;;;5033872;28;20200;-63
2023/05/29 12:30:09;;;;;;;4.75;2.67;;;;;;;;;;5029624;28;20265;-66
2023/05/29 12:32:37;;;;;;;3.25;2.95;;;;;;;;;;5026865;28;20216;-65
2023/05/29 12:35:12;;;;;;;6.05;2.92;;;;;;;;;;5029654;28;20211;-63
2023/05/29 12:37:43;;;;;;;6.07;3.00;;;;;;;;;;5032494;28;20203;-63
2023/05/29 12:40:10;;;;;;;3.88;2.60;;;;;;;;;;5033689;28;20215;-63
2023/05/29 12:42:40;;;;;;;4.43;2.60;;;;;;;;;;5032553;28;20222;-62
2023/05/29 12:45:09;;;;;;;6.20;3.08;;;;;;;;;;5026640;28;20204;-63
2023/05/29 12:47:36;;;;;;;3.28;2.53;;;;;;;;;;5033348;28;20287;-63
2023/05/29 12:50:17;;;;;;;2.67;2.47;;;;;;;;;;5034312;28;20203;-62
2023/05/29 12:52:44;;;;;;;4.10;2.70;;;;;;;;;;5033117;28;20219;-63
2023/05/29 12:55:11;;;;;;;3.63;3.00;;;;;;;;;;5029257;28;20204;-63
2023/05/29 12:57:39;;;;;;;3.17;2.90;;;;;;;;;;5033060;28;20200;-64
2023/05/29 13:00:12;;;;;;;2.70;2.50;;;;;;;;;;5033741;28;20201;-63
2023/05/29 13:02:39;;;;;;;3.47;2.80;;;;;;;;;;5032149;28;20192;-63
2023/05/29 13:05:06;;;;;;;2.92;2.70;;;;;;;;;;5032362;28;20213;-63
2023/05/29 13:07:34;;;;;;;3.83;2.90;;;;;;;;;;5032796;28;20205;-65
2023/05/29 13:10:02;;;;;;;3.83;3.15;;;;;;;;;;5031828;28;20206;-63
2023/05/29 13:12:29;;;;;;;5.20;2.88;;;;;;;;;;5026752;28;20236;-63
2023/05/29 13:14:56;;;;;;;6.28;2.67;;;;;;;;;;5028374;28;20207;-63
2023/05/29 13:17:25;;;;;;;3.10;2.80;;;;;;;;;;5030632;28;20208;-62
2023/05/29 13:19:52;;;;;;;4.90;2.85;;;;;;;;;;5028878;28;20244;-63
2023/05/29 13:22:19;;;;;;;3.67;3.03;;;;;;;;;;5030475;28;20235;-62
2023/05/29 13:24:46;;;;;;;3.97;2.75;;;;;;;;;;5033160;28;20196;-63
2023/05/29 13:27:15;;;;;;;3.97;3.22;;;;;;;;;;5033189;28;20204;-63
2023/05/29 13:29:42;;;;;;;3.28;2.80;;;;;;;;;;5032535;28;20212;-64
2023/05/29 13:32:10;;;;;;;6.15;3.00;;;;;;;;;;5032375;28;20228;-64
2023/05/29 13:34:38;;;;;;;3.38;2.50;;;;;;;;;;5030593;28;20227;-64
2023/05/29 13:37:06;;;;;;;3.40;2.70;;;;;;;;;;5032590;28;20208;-64
2023/05/29 13:39:33;;;;;;;4.60;2.85;;;;;;;;;;5029157;28;20208;-63
2023/05/29 13:42:00;;;;;;;3.17;2.88;;;;;;;;;;5031708;28;20206;-63
2023/05/29 13:44:27;;;;;;;2.90;2.58;;;;;;;;;;5030776;28;20208;-63
2023/05/29 13:46:55;;;;;;;3.67;2.70;;;;;;;;;;5032338;28;20299;-63
2023/05/29 13:49:22;;;;;;;3.58;2.80;;;;;;;;;;5031524;28;20215;-63
2023/05/29 13:51:50;;;;;;;4.03;2.88;;;;;;;;;;5031317;28;20224;-63
2023/05/29 13:54:18;;;;;;;3.53;2.80;;;;;;;;;;5031038;28;20212;-63
2023/05/29 13:56:45;;;;;;;3.78;2.88;;;;;;;;;;5032206;28;20216;-63
2023/05/29 13:59:12;;;;;;;4.35;2.97;;;;;;;;;;5027192;28;20235;-63
2023/05/29 14:01:39;;;;;;;3.78;2.88;;;;;;;;;;5031391;28;20211;-63
2023/05/29 14:04:07;;;;;;;3.30;2.70;;;;;;;;;;5032009;28;20211;-65
2023/05/29 14:06:36;;;;;;;3.75;2.80;;;;;;;;;;5031038;28;20220;-64
2023/05/29 14:09:05;;;;;;;3.50;2.75;;;;;;;;;;5027173;28;20234;-63
2023/05/29 14:11:35;;;;;;;4.18;3.22;;;;;;;;;;5032894;28;20204;-63
2023/05/29 14:14:02;;;;;;;4.80;2.80;;;;;;;;;;5031271;28;20203;-64
2023/05/29 14:16:29;;;;;;;3.22;2.90;;;;;;;;;;5028765;28;20206;-63
2023/05/29 14:18:56;;;;;;;3.20;2.90;;;;;;;;;;5028518;28;20211;-64
2023/05/29 14:21:24;;;;;;;4.88;3.05;;;;;;;;;;5030939;28;20201;-64
2023/05/29 14:23:51;;;;;;;3.22;2.78;;;;;;;;;;5030371;28;20242;-63
2023/05/29 14:26:20;;;;;;;4.05;2.90;;;;;;;;;;5031007;28;20212;-63
2023/05/29 14:28:47;;;;;;;5.40;3.00;;;;;;;;;;5031142;28;20208;-63
2023/05/29 14:31:16;;;;;;;5.95;2.90;;;;;;;;;;5028835;28;20204;-64
2023/05/29 14:33:43;;;;;;;4.15;3.10;;;;;;;;;;5031110;28;20216;-62
2023/05/29 14:36:10;;;;;;;4.35;2.90;;;;;;;;;;5027436;28;20204;-62
2023/05/29 14:38:37;;;;;;;3.70;2.90;;;;;;;;;;5023610;28;20208;-63
2023/05/29 14:41:06;;;;;;;3.38;2.72;;;;;;;;;;5029520;28;20204;-63
2023/05/29 14:43:34;;;;;;;4.18;2.92;;;;;;;;;;5028709;28;20200;-63
2023/05/29 14:46:02;;;;;;;3.03;2.60;;;;;;;;;;5029840;28;20207;-65
2023/05/29 14:48:29;;;;;;;3.17;2.80;;;;;;;;;;5031368;28;20215;-63
2023/05/29 14:50:56;;;;;;;4.18;3.38;;;;;;;;;;5028426;28;20218;-65